DAL3214 KLAX-KMIA
Flight info
| Callsign | DAL3214 |
|---|---|
| Flight time | 4h 6m |
| Altitude | 39000 |
| Route | KLAX/24L N0449F390 DOTSS2 CNERY DCT BLH DCT SALOM DCT EWM DCT CRGER DCT IAH J86 LEV DCT BACCA Y290 GAWKS FROGZ4 KMIA/09 |
| Aircraft | A333/M-V/N |
Departure
| Time | 2026-04-24 21:28 |
|---|---|
| Airport | Los Angeles International Airport (KLAX) |
Arrival
| Time | 2026-04-25 01:34 |
|---|---|
| Airport | Miami International Airport (KMIA) |
| Time | Latitude | Longitude | Altitude | Speed | Heading |
|---|---|---|---|---|---|
| 2026-04-24 20:49 | 33.94681 | -118.40632 | 129 ft | 0 kts | 257° |
| 2026-04-24 21:11 | 33.94681 | -118.40630 | 129 ft | 3 kts | 257° |
| 2026-04-24 21:11 | 33.94685 | -118.40608 | 128 ft | 3 kts | 267° |
| 2026-04-24 21:12 | 33.94682 | -118.40584 | 125 ft | 3 kts | 314° |
| 2026-04-24 21:12 | 33.94667 | -118.40572 | 124 ft | 1 kts | 348° |
| 2026-04-24 21:22 | 33.94681 | -118.40575 | 125 ft | 5 kts | 352° |
| 2026-04-24 21:22 | 33.94717 | -118.40578 | 124 ft | 6 kts | 356° |
| 2026-04-24 21:22 | 33.94760 | -118.40583 | 127 ft | 7 kts | 352° |
| 2026-04-24 21:23 | 33.94808 | -118.40595 | 126 ft | 8 kts | 349° |
| 2026-04-24 21:23 | 33.94850 | -118.40579 | 125 ft | 5 kts | 52° |
| 2026-04-24 21:23 | 33.94867 | -118.40540 | 126 ft | 6 kts | 68° |
| 2026-04-24 21:23 | 33.94876 | -118.40490 | 124 ft | 7 kts | 82° |
| 2026-04-24 21:24 | 33.94882 | -118.40431 | 126 ft | 8 kts | 83° |
| 2026-04-24 21:24 | 33.94889 | -118.40362 | 125 ft | 9 kts | 82° |
| 2026-04-24 21:24 | 33.94897 | -118.40286 | 126 ft | 10 kts | 83° |
| 2026-04-24 21:24 | 33.94906 | -118.40202 | 124 ft | 11 kts | 83° |
| 2026-04-24 21:25 | 33.94915 | -118.40110 | 126 ft | 11 kts | 84° |
| 2026-04-24 21:25 | 33.94924 | -118.40014 | 129 ft | 12 kts | 83° |
| 2026-04-24 21:25 | 33.94944 | -118.39943 | 127 ft | 0 kts | 53° |
| 2026-04-24 21:26 | 33.94945 | -118.39942 | 129 ft | 1 kts | 53° |
| 2026-04-24 21:26 | 33.94953 | -118.39933 | 126 ft | 3 kts | 37° |
| 2026-04-24 21:26 | 33.94978 | -118.39924 | 124 ft | 4 kts | 13° |
| 2026-04-24 21:26 | 33.95007 | -118.39925 | 126 ft | 2 kts | 334° |
| 2026-04-24 21:27 | 33.95031 | -118.39956 | 127 ft | 9 kts | 298° |
| 2026-04-24 21:27 | 33.95030 | -118.40070 | 127 ft | 23 kts | 263° |
| 2026-04-24 21:27 | 33.94982 | -118.40543 | 128 ft | 95 kts | 262° |
| 2026-04-24 21:27 | 33.94863 | -118.41634 | 158 ft | 165 kts | 261° |
| 2026-04-24 21:28 | 33.94692 | -118.43128 | 818 ft | 194 kts | 258° |
| 2026-04-24 21:28 | 33.94462 | -118.44829 | 1753 ft | 221 kts | 259° |
| 2026-04-24 21:28 | 33.94304 | -118.46814 | 2493 ft | 258 kts | 265° |
| 2026-04-24 21:28 | 33.94231 | -118.49126 | 3131 ft | 291 kts | 268° |
| 2026-04-24 21:29 | 33.94122 | -118.51643 | 4048 ft | 313 kts | 265° |
| 2026-04-24 21:29 | 33.93938 | -118.54354 | 4956 ft | 333 kts | 264° |
| 2026-04-24 21:29 | 33.93725 | -118.57193 | 5920 ft | 350 kts | 264° |
| 2026-04-24 21:29 | 33.93402 | -118.60203 | 6429 ft | 371 kts | 256° |
| 2026-04-24 21:30 | 33.92368 | -118.62920 | 6486 ft | 347 kts | 233° |
| 2026-04-24 21:30 | 33.90645 | -118.64756 | 6430 ft | 330 kts | 210° |
| 2026-04-24 21:30 | 33.88491 | -118.65476 | 6295 ft | 318 kts | 181° |
| 2026-04-24 21:30 | 33.86377 | -118.65032 | 6762 ft | 301 kts | 168° |
| 2026-04-24 21:31 | 33.84428 | -118.64272 | 7625 ft | 292 kts | 157° |
| 2026-04-24 21:31 | 33.82692 | -118.63018 | 8669 ft | 291 kts | 147° |
| 2026-04-24 21:31 | 33.81059 | -118.61571 | 9587 ft | 293 kts | 146° |
| 2026-04-24 21:31 | 33.79404 | -118.60112 | 10314 ft | 300 kts | 147° |
| 2026-04-24 21:32 | 33.77643 | -118.58611 | 10614 ft | 321 kts | 148° |
| 2026-04-24 21:32 | 33.75749 | -118.57036 | 10924 ft | 340 kts | 149° |
| 2026-04-24 21:32 | 33.73762 | -118.55403 | 11479 ft | 350 kts | 149° |
| 2026-04-24 21:32 | 33.71740 | -118.53730 | 12154 ft | 357 kts | 147° |
| 2026-04-24 21:33 | 33.69935 | -118.51660 | 12831 ft | 370 kts | 130° |
| 2026-04-24 21:33 | 33.68718 | -118.48907 | 13517 ft | 381 kts | 115° |
| 2026-04-24 21:33 | 33.67795 | -118.45890 | 14137 ft | 388 kts | 112° |
| 2026-04-24 21:33 | 33.66910 | -118.42802 | 14668 ft | 393 kts | 112° |
| 2026-04-24 21:34 | 33.66015 | -118.39695 | 14957 ft | 395 kts | 112° |
| 2026-04-24 21:34 | 33.65110 | -118.36574 | 15158 ft | 399 kts | 111° |
| 2026-04-24 21:34 | 33.64513 | -118.33299 | 15729 ft | 407 kts | 97° |
| 2026-04-24 21:34 | 33.64407 | -118.29885 | 16363 ft | 412 kts | 91° |
| 2026-04-24 21:35 | 33.64415 | -118.26422 | 16956 ft | 417 kts | 91° |
| 2026-04-24 21:35 | 33.64435 | -118.22963 | 17523 ft | 423 kts | 91° |
| 2026-04-24 21:35 | 33.64450 | -118.19417 | 18117 ft | 428 kts | 91° |
| 2026-04-24 21:35 | 33.64458 | -118.15827 | 18609 ft | 433 kts | 91° |
| 2026-04-24 21:36 | 33.64462 | -118.12186 | 19105 ft | 438 kts | 91° |
| 2026-04-24 21:36 | 33.64462 | -118.08511 | 19593 ft | 443 kts | 91° |
| 2026-04-24 21:36 | 33.64460 | -118.04796 | 20081 ft | 448 kts | 91° |
| 2026-04-24 21:36 | 33.64457 | -118.01041 | 20553 ft | 453 kts | 91° |
| 2026-04-24 21:37 | 33.64452 | -117.97246 | 21037 ft | 457 kts | 91° |
| 2026-04-24 21:37 | 33.64445 | -117.93464 | 21486 ft | 461 kts | 91° |
| 2026-04-24 21:37 | 33.64438 | -117.89603 | 21975 ft | 465 kts | 91° |
| 2026-04-24 21:37 | 33.64429 | -117.85705 | 22463 ft | 469 kts | 91° |
| 2026-04-24 21:38 | 33.64386 | -117.81772 | 22907 ft | 473 kts | 94° |
| 2026-04-24 21:38 | 33.63945 | -117.77861 | 23349 ft | 474 kts | 105° |
| 2026-04-24 21:38 | 33.63099 | -117.74027 | 23746 ft | 477 kts | 109° |
| 2026-04-24 21:38 | 33.62155 | -117.70206 | 24155 ft | 479 kts | 110° |
| 2026-04-24 21:39 | 33.61198 | -117.66374 | 24581 ft | 481 kts | 110° |
| 2026-04-24 21:39 | 33.60238 | -117.62523 | 25006 ft | 483 kts | 110° |
| 2026-04-24 21:39 | 33.59291 | -117.58712 | 25401 ft | 485 kts | 110° |
| 2026-04-24 21:39 | 33.58327 | -117.54829 | 25815 ft | 487 kts | 110° |
| 2026-04-24 21:40 | 33.57358 | -117.50927 | 26216 ft | 489 kts | 110° |
| 2026-04-24 21:40 | 33.56385 | -117.47008 | 26596 ft | 492 kts | 110° |
| 2026-04-24 21:40 | 33.55406 | -117.43070 | 26985 ft | 494 kts | 110° |
| 2026-04-24 21:40 | 33.54420 | -117.39112 | 27366 ft | 497 kts | 110° |
| 2026-04-24 21:41 | 33.53431 | -117.35142 | 27776 ft | 498 kts | 111° |
| 2026-04-24 21:41 | 33.52450 | -117.31213 | 28174 ft | 499 kts | 111° |
| 2026-04-24 21:41 | 33.51453 | -117.27221 | 28554 ft | 502 kts | 110° |
| 2026-04-24 21:41 | 33.50665 | -117.23120 | 28890 ft | 509 kts | 101° |
| 2026-04-24 21:42 | 33.50399 | -117.18869 | 29261 ft | 514 kts | 94° |
| 2026-04-24 21:42 | 33.50327 | -117.14566 | 29612 ft | 518 kts | 93° |
| 2026-04-24 21:42 | 33.50283 | -117.10248 | 29965 ft | 520 kts | 93° |
| 2026-04-24 21:42 | 33.50237 | -117.05904 | 30265 ft | 523 kts | 93° |
| 2026-04-24 21:43 | 33.50183 | -117.01533 | 30531 ft | 526 kts | 93° |
| 2026-04-24 21:43 | 33.50125 | -116.97140 | 30817 ft | 529 kts | 93° |
| 2026-04-24 21:43 | 33.50063 | -116.92786 | 31084 ft | 531 kts | 93° |
| 2026-04-24 21:43 | 33.49998 | -116.88342 | 31357 ft | 534 kts | 93° |
| 2026-04-24 21:44 | 33.49930 | -116.83882 | 31617 ft | 537 kts | 93° |
| 2026-04-24 21:44 | 33.49860 | -116.79401 | 31887 ft | 540 kts | 93° |
| 2026-04-24 21:44 | 33.49788 | -116.74907 | 32220 ft | 541 kts | 93° |
| 2026-04-24 21:44 | 33.49714 | -116.70396 | 32593 ft | 540 kts | 93° |
| 2026-04-24 21:45 | 33.49639 | -116.65896 | 32954 ft | 540 kts | 93° |
| 2026-04-24 21:45 | 33.49561 | -116.61397 | 33292 ft | 540 kts | 93° |
| 2026-04-24 21:45 | 33.49482 | -116.56892 | 33621 ft | 541 kts | 93° |
| 2026-04-24 21:45 | 33.49403 | -116.52454 | 33944 ft | 541 kts | 93° |
| 2026-04-24 21:46 | 33.49320 | -116.47939 | 34186 ft | 542 kts | 93° |
| 2026-04-24 21:46 | 33.49236 | -116.43428 | 34483 ft | 542 kts | 93° |
| 2026-04-24 21:46 | 33.49164 | -116.38908 | 34746 ft | 543 kts | 92° |
| 2026-04-24 21:46 | 33.49099 | -116.34379 | 34979 ft | 544 kts | 93° |
| 2026-04-24 21:47 | 33.49032 | -116.29850 | 35283 ft | 543 kts | 92° |
| 2026-04-24 21:47 | 33.48987 | -116.26863 | 35453 ft | 544 kts | 92° |
| 2026-04-24 21:47 | 33.48893 | -116.20795 | 35817 ft | 543 kts | 92° |
| 2026-04-24 21:47 | 33.48822 | -116.16335 | 36019 ft | 543 kts | 92° |
| 2026-04-24 21:48 | 33.48748 | -116.11802 | 36193 ft | 545 kts | 92° |
| 2026-04-24 21:48 | 33.48698 | -116.07261 | 36440 ft | 546 kts | 89° |
| 2026-04-24 21:48 | 33.49066 | -116.02739 | 36671 ft | 546 kts | 77° |
| 2026-04-24 21:48 | 33.50071 | -115.98357 | 36909 ft | 545 kts | 69° |
| 2026-04-24 21:49 | 33.51303 | -115.94068 | 37163 ft | 545 kts | 68° |
| 2026-04-24 21:49 | 33.52571 | -115.89783 | 37323 ft | 547 kts | 68° |
| 2026-04-24 21:49 | 33.53842 | -115.85484 | 37537 ft | 547 kts | 68° |
| 2026-04-24 21:49 | 33.55090 | -115.81239 | 37789 ft | 547 kts | 68° |
| 2026-04-24 21:50 | 33.56347 | -115.76939 | 38053 ft | 547 kts | 68° |
| 2026-04-24 21:50 | 33.57601 | -115.72635 | 38256 ft | 547 kts | 68° |
| 2026-04-24 21:50 | 33.58851 | -115.68336 | 38495 ft | 546 kts | 68° |
| 2026-04-24 21:50 | 33.60101 | -115.64030 | 38634 ft | 546 kts | 68° |
| 2026-04-24 21:51 | 33.61346 | -115.59732 | 38807 ft | 546 kts | 68° |
| 2026-04-24 21:51 | 33.62772 | -115.50813 | 38833 ft | 546 kts | 92° |
| 2026-04-24 21:51 | 33.62395 | -115.46311 | 38833 ft | 540 kts | 105° |
| 2026-04-24 21:52 | 33.61658 | -115.41961 | 38830 ft | 542 kts | 99° |
| 2026-04-24 21:52 | 33.61088 | -115.32905 | 38841 ft | 546 kts | 94° |
| 2026-04-24 21:53 | 33.60854 | -115.23797 | 38818 ft | 546 kts | 92° |
| 2026-04-24 21:53 | 33.60666 | -115.14684 | 38816 ft | 546 kts | 92° |
| 2026-04-24 21:54 | 33.60449 | -115.05639 | 38819 ft | 546 kts | 93° |
| 2026-04-24 21:54 | 33.60204 | -114.96569 | 38820 ft | 546 kts | 93° |
| 2026-04-24 21:55 | 33.59943 | -114.87463 | 38843 ft | 546 kts | 93° |
| 2026-04-24 21:55 | 33.59676 | -114.78356 | 38848 ft | 546 kts | 93° |
| 2026-04-24 21:56 | 33.59150 | -114.69331 | 38848 ft | 545 kts | 98° |
| 2026-04-24 21:56 | 33.58298 | -114.60297 | 38847 ft | 545 kts | 99° |
| 2026-04-24 21:57 | 33.57420 | -114.51269 | 38820 ft | 545 kts | 98° |
| 2026-04-24 21:57 | 33.56576 | -114.42231 | 38808 ft | 545 kts | 98° |
| 2026-04-24 21:58 | 33.55750 | -114.33189 | 38806 ft | 545 kts | 98° |
| 2026-04-24 21:58 | 33.54929 | -114.24216 | 38805 ft | 545 kts | 98° |
| 2026-04-24 21:59 | 33.54094 | -114.15178 | 38807 ft | 546 kts | 98° |
| 2026-04-24 21:59 | 33.53250 | -114.06139 | 38808 ft | 546 kts | 98° |
| 2026-04-24 22:00 | 33.52401 | -113.97109 | 38829 ft | 545 kts | 98° |
| 2026-04-24 22:00 | 33.51426 | -113.88187 | 38865 ft | 542 kts | 104° |
| 2026-04-24 22:01 | 33.49996 | -113.79312 | 38890 ft | 542 kts | 104° |
| 2026-04-24 22:01 | 33.48468 | -113.70469 | 38912 ft | 542 kts | 104° |
| 2026-04-24 22:02 | 33.46922 | -113.61648 | 38921 ft | 541 kts | 105° |
| 2026-04-24 22:02 | 33.45383 | -113.52893 | 38911 ft | 541 kts | 105° |
| 2026-04-24 22:03 | 33.43836 | -113.44087 | 38875 ft | 541 kts | 105° |
| 2026-04-24 22:03 | 33.42284 | -113.35275 | 38820 ft | 541 kts | 105° |
| 2026-04-24 22:04 | 33.40723 | -113.26457 | 38821 ft | 542 kts | 105° |
| 2026-04-24 22:04 | 33.39157 | -113.17636 | 38819 ft | 542 kts | 105° |
| 2026-04-24 22:05 | 33.37597 | -113.08884 | 38825 ft | 542 kts | 105° |
| 2026-04-24 22:05 | 33.36020 | -113.00073 | 38836 ft | 541 kts | 105° |
| 2026-04-24 22:06 | 33.34433 | -112.91250 | 38846 ft | 541 kts | 105° |
| 2026-04-24 22:06 | 33.32841 | -112.82441 | 38856 ft | 541 kts | 105° |
| 2026-04-24 22:07 | 33.31256 | -112.73708 | 38861 ft | 542 kts | 105° |
| 2026-04-24 22:07 | 33.29656 | -112.64921 | 38860 ft | 541 kts | 105° |
| 2026-04-24 22:08 | 33.28046 | -112.56120 | 38851 ft | 541 kts | 105° |
| 2026-04-24 22:08 | 33.26431 | -112.47332 | 38850 ft | 541 kts | 105° |
| 2026-04-24 22:09 | 33.24822 | -112.38615 | 38852 ft | 541 kts | 105° |
| 2026-04-24 22:09 | 33.23199 | -112.29851 | 38847 ft | 540 kts | 105° |
| 2026-04-24 22:10 | 33.21570 | -112.21094 | 38840 ft | 540 kts | 105° |
| 2026-04-24 22:10 | 33.19933 | -112.12343 | 38837 ft | 540 kts | 105° |
| 2026-04-24 22:11 | 33.18300 | -112.03639 | 38869 ft | 541 kts | 106° |
| 2026-04-24 22:11 | 33.16649 | -111.94872 | 38885 ft | 541 kts | 106° |
| 2026-04-24 22:12 | 33.14992 | -111.86108 | 38894 ft | 541 kts | 106° |
| 2026-04-24 22:12 | 33.13329 | -111.77350 | 38882 ft | 541 kts | 106° |
| 2026-04-24 22:13 | 33.11660 | -111.68597 | 38872 ft | 541 kts | 106° |
| 2026-04-24 22:13 | 33.09997 | -111.59905 | 38865 ft | 541 kts | 106° |
| 2026-04-24 22:14 | 33.08316 | -111.51160 | 38810 ft | 541 kts | 106° |
| 2026-04-24 22:14 | 33.06627 | -111.42413 | 38809 ft | 542 kts | 106° |
| 2026-04-24 22:15 | 33.04931 | -111.33660 | 38811 ft | 542 kts | 106° |
| 2026-04-24 22:15 | 33.03242 | -111.24980 | 38816 ft | 542 kts | 106° |
| 2026-04-24 22:16 | 33.01535 | -111.16234 | 38816 ft | 542 kts | 106° |
| 2026-04-24 22:16 | 32.99821 | -111.07497 | 38819 ft | 542 kts | 106° |
| 2026-04-24 22:17 | 32.98100 | -110.98755 | 38819 ft | 542 kts | 107° |
| 2026-04-24 22:17 | 32.96384 | -110.90070 | 38821 ft | 542 kts | 107° |
| 2026-04-24 22:18 | 32.94648 | -110.81338 | 38792 ft | 542 kts | 107° |
| 2026-04-24 22:18 | 32.92909 | -110.72599 | 38824 ft | 543 kts | 107° |
| 2026-04-24 22:19 | 32.91163 | -110.63859 | 38816 ft | 543 kts | 107° |
| 2026-04-24 22:19 | 32.89411 | -110.55121 | 38824 ft | 544 kts | 107° |
| 2026-04-24 22:20 | 32.87661 | -110.46432 | 38810 ft | 543 kts | 107° |
| 2026-04-24 22:20 | 32.85894 | -110.37697 | 38814 ft | 543 kts | 107° |
| 2026-04-24 22:21 | 32.84118 | -110.28964 | 38814 ft | 544 kts | 107° |
| 2026-04-24 22:21 | 32.82349 | -110.20236 | 38819 ft | 542 kts | 107° |
| 2026-04-24 22:22 | 32.80583 | -110.11590 | 38802 ft | 543 kts | 107° |
| 2026-04-24 22:22 | 32.78791 | -110.02858 | 38810 ft | 545 kts | 107° |
| 2026-04-24 22:23 | 32.76983 | -109.94103 | 38809 ft | 545 kts | 107° |
| 2026-04-24 22:23 | 32.75182 | -109.85416 | 38790 ft | 544 kts | 108° |
| 2026-04-24 22:24 | 32.73361 | -109.76679 | 38787 ft | 545 kts | 107° |
| 2026-04-24 22:24 | 32.71549 | -109.67990 | 38851 ft | 540 kts | 107° |
| 2026-04-24 22:25 | 32.69740 | -109.59341 | 38839 ft | 540 kts | 107° |
| 2026-04-24 22:25 | 32.67925 | -109.50697 | 38823 ft | 540 kts | 107° |
| 2026-04-24 22:26 | 32.66111 | -109.42091 | 38785 ft | 541 kts | 107° |
| 2026-04-24 22:26 | 32.64277 | -109.33434 | 38766 ft | 541 kts | 107° |
| 2026-04-24 22:27 | 32.62439 | -109.24771 | 38757 ft | 542 kts | 107° |
| 2026-04-24 22:27 | 32.60594 | -109.16108 | 38754 ft | 541 kts | 107° |
| 2026-04-24 22:28 | 32.58746 | -109.07464 | 38765 ft | 541 kts | 107° |
| 2026-04-24 22:28 | 32.56909 | -108.98902 | 38764 ft | 538 kts | 107° |
| 2026-04-24 22:29 | 32.54133 | -108.86028 | 38767 ft | 538 kts | 108° |
| 2026-04-24 22:29 | 32.52273 | -108.77441 | 38773 ft | 538 kts | 107° |
| 2026-04-24 22:30 | 32.50423 | -108.68926 | 38782 ft | 537 kts | 108° |
| 2026-04-24 22:30 | 32.48554 | -108.60359 | 38779 ft | 537 kts | 108° |
| 2026-04-24 22:31 | 32.46679 | -108.51794 | 38791 ft | 537 kts | 108° |
| 2026-04-24 22:31 | 32.44802 | -108.43246 | 38847 ft | 536 kts | 108° |
| 2026-04-24 22:32 | 32.42915 | -108.34682 | 38867 ft | 539 kts | 108° |
| 2026-04-24 22:32 | 32.41027 | -108.26146 | 38875 ft | 540 kts | 108° |
| 2026-04-24 22:33 | 32.39121 | -108.17557 | 38871 ft | 539 kts | 108° |
| 2026-04-24 22:33 | 32.37212 | -108.08984 | 38853 ft | 539 kts | 108° |
| 2026-04-24 22:34 | 32.35295 | -108.00411 | 38810 ft | 540 kts | 108° |
| 2026-04-24 22:34 | 32.33378 | -107.91866 | 38771 ft | 542 kts | 108° |
| 2026-04-24 22:35 | 32.31442 | -107.83260 | 38772 ft | 542 kts | 108° |
| 2026-04-24 22:35 | 32.30470 | -107.78949 | 38930 ft | 542 kts | 108° |
| 2026-04-24 22:35 | 32.29499 | -107.74651 | 38936 ft | 542 kts | 108° |
| 2026-04-24 22:36 | 32.27549 | -107.66045 | 38937 ft | 542 kts | 108° |
| 2026-04-24 22:36 | 32.25595 | -107.57448 | 38911 ft | 542 kts | 108° |
| 2026-04-24 22:37 | 32.23647 | -107.48909 | 38864 ft | 542 kts | 108° |
| 2026-04-24 22:37 | 32.21681 | -107.40321 | 38814 ft | 542 kts | 108° |
| 2026-04-24 22:38 | 32.19710 | -107.31738 | 38760 ft | 541 kts | 108° |
| 2026-04-24 22:38 | 32.17740 | -107.23186 | 38802 ft | 540 kts | 108° |
| 2026-04-24 22:39 | 32.15776 | -107.14696 | 38838 ft | 540 kts | 108° |
| 2026-04-24 22:39 | 32.13795 | -107.06155 | 38866 ft | 540 kts | 108° |
| 2026-04-24 22:40 | 32.11809 | -106.97620 | 38879 ft | 539 kts | 108° |
| 2026-04-24 22:40 | 32.09819 | -106.89099 | 38866 ft | 538 kts | 108° |
| 2026-04-24 22:41 | 32.07826 | -106.80594 | 38841 ft | 538 kts | 108° |
| 2026-04-24 22:41 | 32.06165 | -106.73527 | 38859 ft | 538 kts | 108° |
| 2026-04-24 22:42 | 32.03834 | -106.63640 | 38849 ft | 539 kts | 108° |
| 2026-04-24 22:42 | 32.01815 | -106.55109 | 38853 ft | 541 kts | 108° |
| 2026-04-24 22:43 | 31.99788 | -106.46569 | 38866 ft | 541 kts | 108° |
| 2026-04-24 22:43 | 31.97767 | -106.38082 | 38891 ft | 541 kts | 108° |
| 2026-04-24 22:44 | 31.95731 | -106.29553 | 38895 ft | 541 kts | 108° |
| 2026-04-24 22:44 | 31.94178 | -106.20876 | 38868 ft | 542 kts | 103° |
| 2026-04-24 22:45 | 31.92783 | -106.12156 | 38842 ft | 542 kts | 102° |
| 2026-04-24 22:45 | 31.91434 | -106.03483 | 38805 ft | 542 kts | 102° |
| 2026-04-24 22:46 | 31.90067 | -105.94756 | 38745 ft | 542 kts | 102° |
| 2026-04-24 22:46 | 31.88686 | -105.86052 | 38752 ft | 541 kts | 102° |
| 2026-04-24 22:47 | 31.87291 | -105.77332 | 38748 ft | 544 kts | 102° |
| 2026-04-24 22:47 | 31.85895 | -105.68643 | 38749 ft | 545 kts | 102° |
| 2026-04-24 22:48 | 31.84483 | -105.59888 | 38733 ft | 544 kts | 102° |
| 2026-04-24 22:48 | 31.83070 | -105.51158 | 38733 ft | 543 kts | 102° |
| 2026-04-24 22:49 | 31.81652 | -105.42439 | 38728 ft | 543 kts | 102° |
| 2026-04-24 22:49 | 31.80236 | -105.33781 | 38726 ft | 543 kts | 103° |
| 2026-04-24 22:50 | 31.78806 | -105.25069 | 38726 ft | 542 kts | 102° |
| 2026-04-24 22:50 | 31.77375 | -105.16386 | 38736 ft | 540 kts | 103° |
| 2026-04-24 22:51 | 31.75941 | -105.07726 | 38735 ft | 540 kts | 103° |
| 2026-04-24 22:51 | 31.74500 | -104.99065 | 38741 ft | 540 kts | 103° |
| 2026-04-24 22:52 | 31.73063 | -104.90465 | 38726 ft | 540 kts | 103° |
| 2026-04-24 22:52 | 31.71609 | -104.81803 | 38745 ft | 541 kts | 103° |
| 2026-04-24 22:53 | 31.70148 | -104.73143 | 38738 ft | 541 kts | 103° |
| 2026-04-24 22:53 | 31.68680 | -104.64477 | 38746 ft | 541 kts | 103° |
| 2026-04-24 22:54 | 31.67220 | -104.55871 | 38746 ft | 541 kts | 103° |
| 2026-04-24 22:54 | 31.65743 | -104.47218 | 38745 ft | 541 kts | 103° |
| 2026-04-24 22:55 | 31.64261 | -104.38574 | 38745 ft | 540 kts | 103° |
| 2026-04-24 22:55 | 31.62773 | -104.29931 | 38737 ft | 540 kts | 103° |
| 2026-04-24 22:56 | 31.61289 | -104.21346 | 38733 ft | 541 kts | 103° |
| 2026-04-24 22:56 | 31.59788 | -104.12703 | 38737 ft | 541 kts | 103° |
| 2026-04-24 22:57 | 31.58280 | -104.04053 | 38721 ft | 541 kts | 103° |
| 2026-04-24 22:57 | 31.56766 | -103.95409 | 38713 ft | 541 kts | 103° |
| 2026-04-24 22:58 | 31.55254 | -103.86806 | 38709 ft | 543 kts | 103° |
| 2026-04-24 22:58 | 31.53724 | -103.78142 | 38734 ft | 543 kts | 104° |
| 2026-04-24 22:59 | 31.52186 | -103.69466 | 38762 ft | 544 kts | 104° |
| 2026-04-24 23:00 | 31.50130 | -103.57924 | 38790 ft | 544 kts | 104° |
| 2026-04-24 23:00 | 31.48326 | -103.47845 | 38808 ft | 544 kts | 104° |
| 2026-04-24 23:01 | 31.46768 | -103.39181 | 38796 ft | 544 kts | 104° |
| 2026-04-24 23:01 | 31.45466 | -103.31972 | 38770 ft | 544 kts | 104° |
| 2026-04-24 23:02 | 31.43897 | -103.23312 | 38741 ft | 544 kts | 104° |
| 2026-04-24 23:02 | 31.42067 | -103.13249 | 38697 ft | 544 kts | 104° |
| 2026-04-24 23:03 | 31.40487 | -103.04605 | 38692 ft | 541 kts | 104° |
| 2026-04-24 23:03 | 31.39174 | -102.97449 | 38688 ft | 542 kts | 104° |
| 2026-04-24 23:04 | 31.37584 | -102.88814 | 38692 ft | 543 kts | 104° |
| 2026-04-24 23:04 | 31.35988 | -102.80179 | 38692 ft | 543 kts | 104° |
| 2026-04-24 23:05 | 31.34384 | -102.71535 | 38697 ft | 544 kts | 104° |
| 2026-04-24 23:05 | 31.32785 | -102.62953 | 38695 ft | 544 kts | 104° |
| 2026-04-24 23:06 | 31.31167 | -102.54302 | 38701 ft | 544 kts | 104° |
| 2026-04-24 23:06 | 31.29543 | -102.45652 | 38706 ft | 544 kts | 104° |
| 2026-04-24 23:07 | 31.27914 | -102.37010 | 38710 ft | 545 kts | 104° |
| 2026-04-24 23:07 | 31.26277 | -102.28361 | 38711 ft | 545 kts | 104° |
| 2026-04-24 23:08 | 31.24644 | -102.19762 | 38710 ft | 545 kts | 104° |
| 2026-04-24 23:08 | 31.22993 | -102.11104 | 38714 ft | 545 kts | 104° |
| 2026-04-24 23:09 | 31.21337 | -102.02455 | 38713 ft | 546 kts | 105° |
| 2026-04-24 23:09 | 31.19685 | -101.93857 | 38717 ft | 546 kts | 105° |
| 2026-04-24 23:10 | 31.18017 | -101.85211 | 38720 ft | 546 kts | 105° |
| 2026-04-24 23:10 | 31.16344 | -101.76571 | 38721 ft | 546 kts | 105° |
| 2026-04-24 23:11 | 31.14664 | -101.67932 | 38729 ft | 546 kts | 105° |
| 2026-04-24 23:11 | 31.12993 | -101.59363 | 38728 ft | 544 kts | 105° |
| 2026-04-24 23:12 | 31.11307 | -101.50755 | 38729 ft | 544 kts | 105° |
| 2026-04-24 23:12 | 31.09615 | -101.42150 | 38728 ft | 544 kts | 105° |
| 2026-04-24 23:13 | 31.07918 | -101.33549 | 38727 ft | 544 kts | 105° |
| 2026-04-24 23:13 | 31.06215 | -101.24952 | 38729 ft | 544 kts | 105° |
| 2026-04-24 23:14 | 31.04518 | -101.16416 | 38731 ft | 544 kts | 105° |
| 2026-04-24 23:14 | 31.02801 | -101.07811 | 38732 ft | 546 kts | 105° |
| 2026-04-24 23:15 | 31.01073 | -100.99180 | 38730 ft | 547 kts | 105° |
| 2026-04-24 23:15 | 30.99337 | -100.90542 | 38731 ft | 547 kts | 105° |
| 2026-04-24 23:16 | 30.97595 | -100.81905 | 38731 ft | 547 kts | 105° |
| 2026-04-24 23:16 | 30.95860 | -100.73335 | 38733 ft | 547 kts | 105° |
| 2026-04-24 23:17 | 30.94109 | -100.64716 | 38733 ft | 547 kts | 105° |
| 2026-04-24 23:17 | 30.92351 | -100.56097 | 38740 ft | 547 kts | 105° |
| 2026-04-24 23:18 | 30.90586 | -100.47475 | 38728 ft | 547 kts | 105° |
| 2026-04-24 23:18 | 30.88815 | -100.38857 | 38722 ft | 547 kts | 105° |
| 2026-04-24 23:19 | 30.87051 | -100.30298 | 38722 ft | 547 kts | 105° |
| 2026-04-24 23:19 | 30.85269 | -100.21684 | 38714 ft | 547 kts | 105° |
| 2026-04-24 23:20 | 30.83482 | -100.13077 | 38721 ft | 548 kts | 105° |
| 2026-04-24 23:20 | 30.81684 | -100.04450 | 38701 ft | 549 kts | 105° |
| 2026-04-24 23:21 | 30.79881 | -99.95824 | 38707 ft | 549 kts | 105° |
| 2026-04-24 23:21 | 30.78084 | -99.87262 | 38733 ft | 549 kts | 105° |
| 2026-04-24 23:22 | 30.76269 | -99.78647 | 38743 ft | 549 kts | 105° |
| 2026-04-24 23:22 | 30.74448 | -99.70029 | 38737 ft | 549 kts | 105° |
| 2026-04-24 23:23 | 30.72621 | -99.61409 | 38741 ft | 549 kts | 105° |
| 2026-04-24 23:23 | 30.70788 | -99.52798 | 38724 ft | 549 kts | 105° |
| 2026-04-24 23:24 | 30.68962 | -99.44245 | 38711 ft | 549 kts | 105° |
| 2026-04-24 23:24 | 30.67119 | -99.35641 | 38703 ft | 548 kts | 105° |
| 2026-04-24 23:25 | 30.65272 | -99.27053 | 38703 ft | 548 kts | 105° |
| 2026-04-24 23:25 | 30.63433 | -99.18533 | 38696 ft | 548 kts | 105° |
| 2026-04-24 23:26 | 30.61568 | -99.09922 | 38706 ft | 550 kts | 106° |
| 2026-04-24 23:26 | 30.59696 | -99.01305 | 38717 ft | 551 kts | 105° |
| 2026-04-24 23:27 | 30.57815 | -98.92673 | 38729 ft | 551 kts | 105° |
| 2026-04-24 23:27 | 30.55930 | -98.84053 | 38732 ft | 551 kts | 105° |
| 2026-04-24 23:28 | 30.54051 | -98.75485 | 38744 ft | 552 kts | 106° |
| 2026-04-24 23:28 | 30.52154 | -98.66868 | 38749 ft | 551 kts | 105° |
| 2026-04-24 23:29 | 30.50251 | -98.58261 | 38741 ft | 551 kts | 105° |
| 2026-04-24 23:29 | 30.48347 | -98.49676 | 38730 ft | 550 kts | 106° |
| 2026-04-24 23:30 | 30.46448 | -98.41140 | 38770 ft | 550 kts | 106° |
| 2026-04-24 23:30 | 30.44582 | -98.32537 | 38779 ft | 551 kts | 103° |
| 2026-04-24 23:31 | 30.43171 | -98.23813 | 38770 ft | 550 kts | 99° |
| 2026-04-24 23:31 | 30.41917 | -98.15062 | 38790 ft | 550 kts | 99° |
| 2026-04-24 23:32 | 30.40628 | -98.06323 | 38800 ft | 550 kts | 100° |
| 2026-04-24 23:32 | 30.39301 | -97.97651 | 38805 ft | 551 kts | 100° |
| 2026-04-24 23:33 | 30.37944 | -97.88932 | 38798 ft | 550 kts | 100° |
| 2026-04-24 23:33 | 30.36583 | -97.80234 | 38778 ft | 549 kts | 100° |
| 2026-04-24 23:34 | 30.35218 | -97.71546 | 38744 ft | 548 kts | 100° |
| 2026-04-24 23:34 | 30.33855 | -97.62896 | 38750 ft | 548 kts | 100° |
| 2026-04-24 23:35 | 30.32485 | -97.54236 | 38740 ft | 548 kts | 100° |
| 2026-04-24 23:35 | 30.31108 | -97.45577 | 38737 ft | 547 kts | 100° |
| 2026-04-24 23:36 | 30.29726 | -97.36923 | 38717 ft | 547 kts | 100° |
| 2026-04-24 23:36 | 30.28338 | -97.28267 | 38704 ft | 547 kts | 100° |
| 2026-04-24 23:37 | 30.26944 | -97.19616 | 38705 ft | 547 kts | 101° |
| 2026-04-24 23:37 | 30.24854 | -97.06709 | 38693 ft | 547 kts | 101° |
| 2026-04-24 23:38 | 30.23446 | -96.98064 | 38815 ft | 547 kts | 101° |
| 2026-04-24 23:38 | 30.22033 | -96.89427 | 38813 ft | 547 kts | 101° |
| 2026-04-24 23:39 | 30.20613 | -96.80783 | 38765 ft | 548 kts | 101° |
| 2026-04-24 23:39 | 30.19186 | -96.72127 | 38722 ft | 548 kts | 101° |
| 2026-04-24 23:40 | 30.17764 | -96.63547 | 38659 ft | 547 kts | 101° |
| 2026-04-24 23:40 | 30.16328 | -96.54909 | 38615 ft | 547 kts | 101° |
| 2026-04-24 23:41 | 30.14886 | -96.46275 | 38612 ft | 547 kts | 101° |
| 2026-04-24 23:41 | 30.13439 | -96.37643 | 38582 ft | 547 kts | 101° |
| 2026-04-24 23:42 | 30.11997 | -96.29086 | 38595 ft | 546 kts | 101° |
| 2026-04-24 23:42 | 30.10542 | -96.20476 | 38595 ft | 546 kts | 101° |
| 2026-04-24 23:43 | 30.09079 | -96.11863 | 38608 ft | 546 kts | 101° |
| 2026-04-24 23:43 | 30.07613 | -96.03262 | 38667 ft | 546 kts | 101° |
| 2026-04-24 23:44 | 30.06141 | -95.94666 | 38690 ft | 545 kts | 101° |
| 2026-04-24 23:44 | 30.04666 | -95.86088 | 38725 ft | 545 kts | 101° |
| 2026-04-24 23:45 | 30.03194 | -95.77560 | 38765 ft | 545 kts | 101° |
| 2026-04-24 23:45 | 30.01707 | -95.68977 | 38762 ft | 545 kts | 101° |
| 2026-04-24 23:46 | 30.00218 | -95.60416 | 38791 ft | 544 kts | 101° |
| 2026-04-24 23:46 | 29.98724 | -95.51863 | 38787 ft | 544 kts | 101° |
| 2026-04-24 23:47 | 29.97232 | -95.43354 | 38816 ft | 546 kts | 101° |
| 2026-04-24 23:47 | 29.95728 | -95.34779 | 38801 ft | 545 kts | 100° |
| 2026-04-24 23:48 | 29.94496 | -95.26163 | 38801 ft | 544 kts | 97° |
| 2026-04-24 23:48 | 29.93433 | -95.17541 | 38803 ft | 543 kts | 96° |
| 2026-04-24 23:49 | 29.92358 | -95.08917 | 38807 ft | 543 kts | 97° |
| 2026-04-24 23:49 | 29.91255 | -95.00365 | 38809 ft | 543 kts | 97° |
| 2026-04-24 23:50 | 29.90124 | -94.91754 | 38814 ft | 543 kts | 97° |
| 2026-04-24 23:50 | 29.88988 | -94.83171 | 38819 ft | 542 kts | 97° |
| 2026-04-24 23:51 | 29.87850 | -94.74598 | 38822 ft | 541 kts | 97° |
| 2026-04-24 23:51 | 29.86705 | -94.66019 | 38820 ft | 541 kts | 97° |
| 2026-04-24 23:52 | 29.85555 | -94.57450 | 38823 ft | 542 kts | 97° |
| 2026-04-24 23:52 | 29.84409 | -94.48950 | 38826 ft | 539 kts | 97° |
| 2026-04-24 23:53 | 29.83254 | -94.40430 | 38826 ft | 538 kts | 97° |
| 2026-04-24 23:53 | 29.82095 | -94.31926 | 38824 ft | 538 kts | 97° |
| 2026-04-24 23:54 | 29.80931 | -94.23421 | 38829 ft | 538 kts | 97° |
| 2026-04-24 23:54 | 29.79769 | -94.14972 | 38832 ft | 537 kts | 97° |
| 2026-04-24 23:55 | 29.78598 | -94.06497 | 38827 ft | 535 kts | 97° |
| 2026-04-24 23:55 | 29.77424 | -93.98044 | 38829 ft | 535 kts | 97° |
| 2026-04-24 23:56 | 29.76243 | -93.89586 | 38828 ft | 536 kts | 97° |
| 2026-04-24 23:56 | 29.75051 | -93.81084 | 38837 ft | 539 kts | 97° |
| 2026-04-24 23:57 | 29.73861 | -93.72632 | 38837 ft | 538 kts | 97° |
| 2026-04-24 23:57 | 29.72658 | -93.64142 | 38831 ft | 538 kts | 97° |
| 2026-04-24 23:58 | 29.71450 | -93.55646 | 38837 ft | 538 kts | 97° |
| 2026-04-24 23:58 | 29.70237 | -93.47154 | 38842 ft | 538 kts | 97° |
| 2026-04-24 23:59 | 29.69019 | -93.38672 | 38840 ft | 538 kts | 97° |
| 2026-04-24 23:59 | 29.67804 | -93.30245 | 38849 ft | 538 kts | 97° |
| 2026-04-25 00:00 | 29.66576 | -93.21762 | 38848 ft | 537 kts | 97° |
| 2026-04-25 00:00 | 29.65343 | -93.13290 | 38852 ft | 538 kts | 98° |
| 2026-04-25 00:01 | 29.64102 | -93.04806 | 38859 ft | 538 kts | 97° |
| 2026-04-25 00:01 | 29.62859 | -92.96341 | 38852 ft | 537 kts | 98° |
| 2026-04-25 00:02 | 29.61611 | -92.87883 | 38857 ft | 537 kts | 98° |
| 2026-04-25 00:02 | 29.60366 | -92.79483 | 38856 ft | 537 kts | 98° |
| 2026-04-25 00:03 | 29.59108 | -92.71036 | 38847 ft | 536 kts | 98° |
| 2026-04-25 00:03 | 29.57845 | -92.62589 | 38852 ft | 537 kts | 98° |
| 2026-04-25 00:04 | 29.56576 | -92.54137 | 38852 ft | 537 kts | 98° |
| 2026-04-25 00:04 | 29.55301 | -92.45687 | 38851 ft | 537 kts | 98° |
| 2026-04-25 00:05 | 29.54031 | -92.37301 | 38848 ft | 537 kts | 98° |
| 2026-04-25 00:05 | 29.52745 | -92.28854 | 38868 ft | 537 kts | 98° |
| 2026-04-25 00:06 | 29.51455 | -92.20412 | 38853 ft | 538 kts | 98° |
| 2026-04-25 00:06 | 29.50154 | -92.11936 | 38853 ft | 540 kts | 98° |
| 2026-04-25 00:07 | 29.48846 | -92.03452 | 38854 ft | 540 kts | 98° |
| 2026-04-25 00:07 | 29.47531 | -91.94961 | 38858 ft | 540 kts | 98° |
| 2026-04-25 00:08 | 29.46220 | -91.86533 | 38867 ft | 540 kts | 98° |
| 2026-04-25 00:08 | 29.44897 | -91.78067 | 38873 ft | 539 kts | 98° |
| 2026-04-25 00:09 | 29.43570 | -91.69607 | 38867 ft | 539 kts | 98° |
| 2026-04-25 00:09 | 29.42237 | -91.61150 | 38881 ft | 539 kts | 98° |
| 2026-04-25 00:10 | 29.40899 | -91.52696 | 38883 ft | 539 kts | 98° |
| 2026-04-25 00:10 | 29.39563 | -91.44296 | 38883 ft | 538 kts | 98° |
| 2026-04-25 00:11 | 29.38435 | -91.37232 | 38879 ft | 538 kts | 98° |
| 2026-04-25 00:11 | 29.36863 | -91.27422 | 38880 ft | 538 kts | 98° |
| 2026-04-25 00:12 | 29.35504 | -91.18986 | 38884 ft | 538 kts | 98° |
| 2026-04-25 00:12 | 29.34140 | -91.10552 | 38881 ft | 538 kts | 98° |
| 2026-04-25 00:13 | 29.32775 | -91.02142 | 38886 ft | 536 kts | 98° |
| 2026-04-25 00:13 | 29.31406 | -90.93752 | 38881 ft | 536 kts | 98° |
| 2026-04-25 00:14 | 29.30041 | -90.85411 | 38878 ft | 536 kts | 98° |
| 2026-04-25 00:14 | 29.28661 | -90.77017 | 38880 ft | 536 kts | 98° |
| 2026-04-25 00:15 | 29.27276 | -90.68627 | 38885 ft | 536 kts | 98° |
| 2026-04-25 00:15 | 29.25887 | -90.60243 | 38888 ft | 536 kts | 98° |
| 2026-04-25 00:16 | 29.24502 | -90.51920 | 38867 ft | 536 kts | 98° |
| 2026-04-25 00:16 | 29.23098 | -90.43509 | 38894 ft | 539 kts | 98° |
| 2026-04-25 00:17 | 29.21683 | -90.35072 | 38891 ft | 540 kts | 99° |
| 2026-04-25 00:17 | 29.20261 | -90.26627 | 38893 ft | 540 kts | 99° |
| 2026-04-25 00:18 | 29.18837 | -90.18201 | 38895 ft | 539 kts | 99° |
| 2026-04-25 00:18 | 29.17228 | -90.09875 | 38894 ft | 540 kts | 107° |
| 2026-04-25 00:19 | 29.14853 | -90.01713 | 38891 ft | 541 kts | 109° |
| 2026-04-25 00:19 | 29.12331 | -89.93621 | 38898 ft | 541 kts | 109° |
| 2026-04-25 00:20 | 29.09775 | -89.85525 | 38897 ft | 541 kts | 109° |
| 2026-04-25 00:20 | 29.07241 | -89.77477 | 38897 ft | 541 kts | 109° |
| 2026-04-25 00:21 | 29.04700 | -89.69387 | 38903 ft | 541 kts | 109° |
| 2026-04-25 00:21 | 29.02157 | -89.61299 | 38902 ft | 541 kts | 109° |
| 2026-04-25 00:22 | 28.99607 | -89.53211 | 38907 ft | 541 kts | 109° |
| 2026-04-25 00:22 | 28.97053 | -89.45129 | 38907 ft | 541 kts | 109° |
| 2026-04-25 00:23 | 28.94495 | -89.37055 | 38916 ft | 542 kts | 109° |
| 2026-04-25 00:23 | 28.91921 | -89.28946 | 38908 ft | 544 kts | 109° |
| 2026-04-25 00:24 | 28.89337 | -89.20830 | 38909 ft | 544 kts | 109° |
| 2026-04-25 00:24 | 28.86766 | -89.12770 | 38909 ft | 544 kts | 109° |
| 2026-04-25 00:25 | 28.84172 | -89.04659 | 38916 ft | 544 kts | 109° |
| 2026-04-25 00:25 | 28.81572 | -88.96550 | 38917 ft | 544 kts | 109° |
| 2026-04-25 00:26 | 28.78972 | -88.88458 | 38916 ft | 544 kts | 109° |
| 2026-04-25 00:26 | 28.76382 | -88.80414 | 38917 ft | 544 kts | 109° |
| 2026-04-25 00:27 | 28.73773 | -88.72332 | 38922 ft | 543 kts | 109° |
| 2026-04-25 00:27 | 28.71162 | -88.64265 | 38920 ft | 543 kts | 109° |
| 2026-04-25 00:28 | 28.68548 | -88.56204 | 38925 ft | 543 kts | 109° |
| 2026-04-25 00:28 | 28.65944 | -88.48195 | 38922 ft | 543 kts | 109° |
| 2026-04-25 00:29 | 28.63318 | -88.40142 | 38921 ft | 543 kts | 109° |
| 2026-04-25 00:29 | 28.60685 | -88.32082 | 38936 ft | 544 kts | 109° |
| 2026-04-25 00:30 | 28.58044 | -88.24017 | 38926 ft | 544 kts | 109° |
| 2026-04-25 00:30 | 28.55488 | -88.16231 | 38929 ft | 544 kts | 109° |
| 2026-04-25 00:31 | 28.52835 | -88.08167 | 38933 ft | 544 kts | 109° |
| 2026-04-25 00:31 | 28.50191 | -88.00149 | 38934 ft | 542 kts | 109° |
| 2026-04-25 00:32 | 28.47534 | -87.92108 | 38935 ft | 541 kts | 109° |
| 2026-04-25 00:32 | 28.44878 | -87.84088 | 38934 ft | 541 kts | 109° |
| 2026-04-25 00:33 | 28.42235 | -87.76126 | 38933 ft | 542 kts | 109° |
| 2026-04-25 00:33 | 28.39568 | -87.68108 | 38943 ft | 541 kts | 109° |
| 2026-04-25 00:34 | 28.36921 | -87.60172 | 38934 ft | 536 kts | 109° |
| 2026-04-25 00:34 | 28.34281 | -87.52271 | 38910 ft | 535 kts | 109° |
| 2026-04-25 00:35 | 28.31623 | -87.44333 | 38931 ft | 541 kts | 109° |
| 2026-04-25 00:35 | 28.29231 | -87.37203 | 38932 ft | 542 kts | 109° |
| 2026-04-25 00:36 | 28.26541 | -87.29207 | 38936 ft | 541 kts | 109° |
| 2026-04-25 00:36 | 28.23859 | -87.21250 | 38941 ft | 539 kts | 109° |
| 2026-04-25 00:37 | 28.21178 | -87.13315 | 38939 ft | 538 kts | 109° |
| 2026-04-25 00:37 | 28.18494 | -87.05388 | 38939 ft | 538 kts | 109° |
| 2026-04-25 00:38 | 28.15804 | -86.97460 | 38941 ft | 539 kts | 109° |
| 2026-04-25 00:38 | 28.13111 | -86.89541 | 38946 ft | 536 kts | 109° |
| 2026-04-25 00:39 | 28.10452 | -86.81739 | 38943 ft | 532 kts | 109° |
| 2026-04-25 00:39 | 28.07783 | -86.73924 | 38945 ft | 532 kts | 109° |
| 2026-04-25 00:40 | 28.05105 | -86.66100 | 38945 ft | 532 kts | 110° |
| 2026-04-25 00:40 | 28.02422 | -86.58277 | 38935 ft | 532 kts | 109° |
| 2026-04-25 00:41 | 27.99729 | -86.50443 | 38946 ft | 535 kts | 110° |
| 2026-04-25 00:41 | 27.97022 | -86.42584 | 38948 ft | 535 kts | 110° |
| 2026-04-25 00:42 | 27.94316 | -86.34744 | 38949 ft | 535 kts | 110° |
| 2026-04-25 00:42 | 27.91620 | -86.26951 | 38949 ft | 535 kts | 110° |
| 2026-04-25 00:43 | 27.88900 | -86.19103 | 38949 ft | 535 kts | 110° |
| 2026-04-25 00:43 | 27.86188 | -86.11296 | 38948 ft | 531 kts | 110° |
| 2026-04-25 00:44 | 27.83492 | -86.03552 | 38950 ft | 529 kts | 110° |
| 2026-04-25 00:44 | 27.80815 | -85.95877 | 38951 ft | 529 kts | 110° |
| 2026-04-25 00:45 | 27.78112 | -85.88144 | 38953 ft | 529 kts | 110° |
| 2026-04-25 00:45 | 27.75405 | -85.80418 | 38950 ft | 529 kts | 110° |
| 2026-04-25 00:46 | 27.72696 | -85.72700 | 38957 ft | 529 kts | 110° |
| 2026-04-25 00:47 | 27.68620 | -85.61121 | 38953 ft | 529 kts | 110° |
| 2026-04-25 00:47 | 27.65915 | -85.53456 | 38953 ft | 529 kts | 110° |
| 2026-04-25 00:48 | 27.63191 | -85.45754 | 38951 ft | 529 kts | 110° |
| 2026-04-25 00:48 | 27.60459 | -85.38044 | 38958 ft | 528 kts | 111° |
| 2026-04-25 00:49 | 27.58489 | -85.30146 | 38957 ft | 522 kts | 99° |
| 2026-04-25 00:49 | 27.57051 | -85.22121 | 38958 ft | 523 kts | 98° |
| 2026-04-25 00:50 | 27.55654 | -85.14146 | 38952 ft | 523 kts | 98° |
| 2026-04-25 00:50 | 27.54244 | -85.06100 | 38958 ft | 523 kts | 98° |
| 2026-04-25 00:51 | 27.52834 | -84.98072 | 38958 ft | 521 kts | 99° |
| 2026-04-25 00:51 | 27.51425 | -84.90081 | 38947 ft | 520 kts | 99° |
| 2026-04-25 00:52 | 27.50013 | -84.82091 | 38960 ft | 520 kts | 99° |
| 2026-04-25 00:52 | 27.48598 | -84.74115 | 38958 ft | 520 kts | 99° |
| 2026-04-25 00:53 | 27.47176 | -84.66132 | 38964 ft | 520 kts | 99° |
| 2026-04-25 00:53 | 27.45761 | -84.58211 | 38961 ft | 519 kts | 99° |
| 2026-04-25 00:54 | 27.44335 | -84.50263 | 38950 ft | 518 kts | 99° |
| 2026-04-25 00:54 | 27.42906 | -84.42314 | 38960 ft | 518 kts | 99° |
| 2026-04-25 00:55 | 27.41470 | -84.34362 | 38958 ft | 518 kts | 99° |
| 2026-04-25 00:55 | 27.40041 | -84.26475 | 38957 ft | 518 kts | 99° |
| 2026-04-25 00:56 | 27.38597 | -84.18529 | 38960 ft | 518 kts | 99° |
| 2026-04-25 00:56 | 27.37150 | -84.10593 | 38959 ft | 518 kts | 99° |
| 2026-04-25 00:57 | 27.35698 | -84.02657 | 38958 ft | 518 kts | 99° |
| 2026-04-25 00:57 | 27.34242 | -83.94726 | 38939 ft | 518 kts | 99° |
| 2026-04-25 00:58 | 27.32780 | -83.86786 | 38957 ft | 519 kts | 99° |
| 2026-04-25 00:58 | 27.31321 | -83.78894 | 38959 ft | 519 kts | 99° |
| 2026-04-25 00:59 | 27.29848 | -83.70949 | 38956 ft | 519 kts | 99° |
| 2026-04-25 00:59 | 27.28372 | -83.63014 | 38958 ft | 519 kts | 99° |
| 2026-04-25 01:00 | 27.26891 | -83.55079 | 38698 ft | 518 kts | 99° |
| 2026-04-25 01:00 | 27.26149 | -83.51111 | 38440 ft | 518 kts | 98° |
| 2026-04-25 01:00 | 27.25405 | -83.47144 | 38171 ft | 519 kts | 99° |
| 2026-04-25 01:00 | 27.24661 | -83.43181 | 37899 ft | 519 kts | 99° |
| 2026-04-25 01:01 | 27.23915 | -83.39211 | 37629 ft | 518 kts | 99° |
| 2026-04-25 01:01 | 27.23180 | -83.35312 | 37362 ft | 517 kts | 99° |
| 2026-04-25 01:01 | 27.22435 | -83.31361 | 37100 ft | 517 kts | 99° |
| 2026-04-25 01:01 | 27.21689 | -83.27413 | 36841 ft | 516 kts | 99° |
| 2026-04-25 01:02 | 27.20942 | -83.23467 | 36574 ft | 516 kts | 99° |
| 2026-04-25 01:02 | 27.20197 | -83.19535 | 36322 ft | 515 kts | 99° |
| 2026-04-25 01:02 | 27.19450 | -83.15601 | 36090 ft | 514 kts | 99° |
| 2026-04-25 01:02 | 27.18705 | -83.11686 | 35849 ft | 513 kts | 99° |
| 2026-04-25 01:03 | 27.17960 | -83.07772 | 35600 ft | 511 kts | 100° |
| 2026-04-25 01:03 | 27.17216 | -83.03876 | 35356 ft | 510 kts | 100° |
| 2026-04-25 01:03 | 27.16473 | -82.99987 | 35113 ft | 509 kts | 100° |
| 2026-04-25 01:03 | 27.15730 | -82.96104 | 34869 ft | 508 kts | 100° |
| 2026-04-25 01:04 | 27.14986 | -82.92225 | 34633 ft | 508 kts | 100° |
| 2026-04-25 01:04 | 27.14242 | -82.88358 | 34399 ft | 507 kts | 101° |
| 2026-04-25 01:04 | 27.13281 | -82.84604 | 34168 ft | 508 kts | 110° |
| 2026-04-25 01:04 | 27.11746 | -82.81045 | 33973 ft | 507 kts | 120° |
| 2026-04-25 01:05 | 27.09934 | -82.77651 | 33962 ft | 507 kts | 122° |
| 2026-04-25 01:05 | 27.06227 | -82.70940 | 33952 ft | 505 kts | 122° |
| 2026-04-25 01:06 | 27.02527 | -82.64237 | 33950 ft | 505 kts | 122° |
| 2026-04-25 01:06 | 26.98835 | -82.57540 | 33950 ft | 505 kts | 122° |
| 2026-04-25 01:07 | 26.95141 | -82.50842 | 33733 ft | 506 kts | 122° |
| 2026-04-25 01:07 | 26.93282 | -82.47479 | 33005 ft | 507 kts | 123° |
| 2026-04-25 01:07 | 26.91249 | -82.44337 | 32385 ft | 505 kts | 133° |
| 2026-04-25 01:07 | 26.88755 | -82.41587 | 31753 ft | 502 kts | 140° |
| 2026-04-25 01:08 | 26.86121 | -82.39027 | 31217 ft | 499 kts | 141° |
| 2026-04-25 01:08 | 26.83493 | -82.36523 | 30766 ft | 493 kts | 141° |
| 2026-04-25 01:08 | 26.80890 | -82.34043 | 30301 ft | 490 kts | 141° |
| 2026-04-25 01:08 | 26.78310 | -82.31581 | 29768 ft | 486 kts | 141° |
| 2026-04-25 01:09 | 26.75745 | -82.29130 | 29208 ft | 482 kts | 141° |
| 2026-04-25 01:09 | 26.73206 | -82.26703 | 28672 ft | 478 kts | 141° |
| 2026-04-25 01:09 | 26.70685 | -82.24293 | 28137 ft | 474 kts | 141° |
| 2026-04-25 01:09 | 26.68189 | -82.21907 | 27642 ft | 471 kts | 141° |
| 2026-04-25 01:10 | 26.65745 | -82.19572 | 27131 ft | 467 kts | 141° |
| 2026-04-25 01:10 | 26.63281 | -82.17220 | 26532 ft | 465 kts | 141° |
| 2026-04-25 01:10 | 26.60824 | -82.14874 | 26006 ft | 463 kts | 141° |
| 2026-04-25 01:10 | 26.58386 | -82.12549 | 25556 ft | 459 kts | 141° |
| 2026-04-25 01:11 | 26.55970 | -82.10244 | 25081 ft | 455 kts | 141° |
| 2026-04-25 01:11 | 26.53575 | -82.07961 | 24626 ft | 451 kts | 140° |
| 2026-04-25 01:11 | 26.51233 | -82.05647 | 24167 ft | 448 kts | 139° |
| 2026-04-25 01:11 | 26.48929 | -82.03325 | 23719 ft | 444 kts | 139° |
| 2026-04-25 01:12 | 26.46646 | -82.01019 | 23205 ft | 441 kts | 139° |
| 2026-04-25 01:12 | 26.44378 | -81.98731 | 22669 ft | 438 kts | 139° |
| 2026-04-25 01:12 | 26.42129 | -81.96465 | 22165 ft | 434 kts | 139° |
| 2026-04-25 01:12 | 26.39927 | -81.94247 | 21647 ft | 430 kts | 139° |
| 2026-04-25 01:13 | 26.37711 | -81.92019 | 21175 ft | 427 kts | 139° |
| 2026-04-25 01:13 | 26.35519 | -81.89816 | 20975 ft | 424 kts | 139° |
| 2026-04-25 01:13 | 26.33324 | -81.87611 | 20941 ft | 425 kts | 139° |
| 2026-04-25 01:13 | 26.31123 | -81.85403 | 20951 ft | 426 kts | 139° |
| 2026-04-25 01:14 | 26.28926 | -81.83198 | 20957 ft | 426 kts | 139° |
| 2026-04-25 01:14 | 26.26726 | -81.80993 | 20959 ft | 426 kts | 139° |
| 2026-04-25 01:14 | 26.24571 | -81.78742 | 20958 ft | 423 kts | 133° |
| 2026-04-25 01:14 | 26.22891 | -81.76081 | 20962 ft | 420 kts | 118° |
| 2026-04-25 01:15 | 26.21611 | -81.73280 | 20961 ft | 419 kts | 115° |
| 2026-04-25 01:15 | 26.20352 | -81.70347 | 20961 ft | 420 kts | 114° |
| 2026-04-25 01:15 | 26.19097 | -81.67413 | 20960 ft | 420 kts | 115° |
| 2026-04-25 01:15 | 26.17838 | -81.64485 | 20966 ft | 420 kts | 115° |
| 2026-04-25 01:16 | 26.16571 | -81.61557 | 20959 ft | 419 kts | 115° |
| 2026-04-25 01:16 | 26.15306 | -81.58642 | 20956 ft | 419 kts | 115° |
| 2026-04-25 01:16 | 26.14037 | -81.55726 | 20948 ft | 418 kts | 115° |
| 2026-04-25 01:16 | 26.12767 | -81.52809 | 20951 ft | 418 kts | 115° |
| 2026-04-25 01:17 | 26.11499 | -81.49902 | 20953 ft | 418 kts | 115° |
| 2026-04-25 01:17 | 26.10228 | -81.46991 | 20954 ft | 418 kts | 115° |
| 2026-04-25 01:17 | 26.08972 | -81.44116 | 20953 ft | 418 kts | 115° |
| 2026-04-25 01:17 | 26.07701 | -81.41210 | 20724 ft | 417 kts | 115° |
| 2026-04-25 01:18 | 26.07154 | -81.39960 | 20451 ft | 417 kts | 115° |
| 2026-04-25 01:18 | 26.05892 | -81.37067 | 19980 ft | 414 kts | 115° |
| 2026-04-25 01:18 | 26.04645 | -81.34202 | 19550 ft | 409 kts | 115° |
| 2026-04-25 01:18 | 26.03409 | -81.31365 | 19119 ft | 406 kts | 115° |
| 2026-04-25 01:19 | 26.02184 | -81.28553 | 18658 ft | 403 kts | 115° |
| 2026-04-25 01:19 | 26.00968 | -81.25765 | 18254 ft | 398 kts | 115° |
| 2026-04-25 01:19 | 25.99781 | -81.23046 | 17766 ft | 394 kts | 115° |
| 2026-04-25 01:19 | 25.98588 | -81.20316 | 17249 ft | 391 kts | 115° |
| 2026-04-25 01:20 | 25.97402 | -81.17602 | 16679 ft | 390 kts | 116° |
| 2026-04-25 01:20 | 25.96228 | -81.14894 | 16150 ft | 388 kts | 115° |
| 2026-04-25 01:20 | 25.95064 | -81.12208 | 15663 ft | 384 kts | 116° |
| 2026-04-25 01:20 | 25.93913 | -81.09546 | 15213 ft | 379 kts | 115° |
| 2026-04-25 01:21 | 25.92856 | -81.06887 | 14810 ft | 374 kts | 111° |
| 2026-04-25 01:21 | 25.91959 | -81.04204 | 14492 ft | 366 kts | 111° |
| 2026-04-25 01:21 | 25.90965 | -81.01649 | 14318 ft | 354 kts | 117° |
| 2026-04-25 01:21 | 25.89767 | -80.99316 | 14174 ft | 342 kts | 122° |
| 2026-04-25 01:22 | 25.88524 | -80.97115 | 13975 ft | 332 kts | 121° |
| 2026-04-25 01:22 | 25.87484 | -80.94880 | 13657 ft | 329 kts | 114° |
| 2026-04-25 01:22 | 25.86603 | -80.92552 | 13275 ft | 326 kts | 112° |
| 2026-04-25 01:22 | 25.85804 | -80.90209 | 12818 ft | 324 kts | 105° |
| 2026-04-25 01:23 | 25.85535 | -80.87699 | 12034 ft | 334 kts | 91° |
| 2026-04-25 01:23 | 25.85194 | -80.85113 | 11224 ft | 344 kts | 106° |
| 2026-04-25 01:23 | 25.84546 | -80.82574 | 10874 ft | 337 kts | 107° |
| 2026-04-25 01:23 | 25.83488 | -80.80318 | 10689 ft | 324 kts | 126° |
| 2026-04-25 01:24 | 25.82254 | -80.78281 | 10538 ft | 313 kts | 122° |
| 2026-04-25 01:24 | 25.81070 | -80.76292 | 10266 ft | 306 kts | 132° |
| 2026-04-25 01:24 | 25.79397 | -80.74891 | 9923 ft | 301 kts | 157° |
| 2026-04-25 01:24 | 25.77413 | -80.74397 | 9524 ft | 296 kts | 182° |
| 2026-04-25 01:25 | 25.75427 | -80.74848 | 9121 ft | 291 kts | 202° |
| 2026-04-25 01:25 | 25.73493 | -80.75483 | 8705 ft | 291 kts | 187° |
| 2026-04-25 01:25 | 25.71470 | -80.75445 | 8314 ft | 290 kts | 175° |
| 2026-04-25 01:25 | 25.69474 | -80.75176 | 7868 ft | 288 kts | 173° |
| 2026-04-25 01:26 | 25.67493 | -80.74886 | 7429 ft | 287 kts | 173° |
| 2026-04-25 01:26 | 25.65545 | -80.74467 | 6974 ft | 286 kts | 159° |
| 2026-04-25 01:26 | 25.63908 | -80.73271 | 6576 ft | 282 kts | 132° |
| 2026-04-25 01:26 | 25.62930 | -80.71427 | 6167 ft | 278 kts | 106° |
| 2026-04-25 01:27 | 25.62796 | -80.69319 | 5716 ft | 275 kts | 79° |
| 2026-04-25 01:27 | 25.63394 | -80.67325 | 5290 ft | 272 kts | 65° |
| 2026-04-25 01:27 | 25.64202 | -80.65446 | 5021 ft | 270 kts | 63° |
| 2026-04-25 01:28 | 25.65863 | -80.61737 | 4589 ft | 271 kts | 63° |
| 2026-04-25 01:28 | 25.66704 | -80.59871 | 4148 ft | 270 kts | 63° |
| 2026-04-25 01:28 | 25.67545 | -80.58022 | 3729 ft | 268 kts | 63° |
| 2026-04-25 01:28 | 25.68386 | -80.56193 | 3250 ft | 265 kts | 63° |
| 2026-04-25 01:29 | 25.69232 | -80.54381 | 3012 ft | 265 kts | 62° |
| 2026-04-25 01:29 | 25.70383 | -80.52819 | 2976 ft | 257 kts | 40° |
| 2026-04-25 01:29 | 25.71771 | -80.51712 | 2983 ft | 236 kts | 34° |
| 2026-04-25 01:29 | 25.73093 | -80.50769 | 2980 ft | 217 kts | 33° |
| 2026-04-25 01:30 | 25.74332 | -80.49897 | 2799 ft | 209 kts | 33° |
| 2026-04-25 01:30 | 25.75563 | -80.49041 | 2389 ft | 214 kts | 33° |
| 2026-04-25 01:30 | 25.76839 | -80.48176 | 2088 ft | 215 kts | 33° |
| 2026-04-25 01:30 | 25.77825 | -80.46990 | 1979 ft | 210 kts | 64° |
| 2026-04-25 01:31 | 25.78149 | -80.45431 | 1979 ft | 206 kts | 88° |
| 2026-04-25 01:31 | 25.78159 | -80.43861 | 1978 ft | 197 kts | 91° |
| 2026-04-25 01:31 | 25.78166 | -80.42419 | 1985 ft | 178 kts | 89° |
| 2026-04-25 01:31 | 25.78214 | -80.41080 | 1984 ft | 171 kts | 88° |
| 2026-04-25 01:32 | 25.78270 | -80.39769 | 1991 ft | 170 kts | 88° |
| 2026-04-25 01:32 | 25.78324 | -80.38478 | 1744 ft | 168 kts | 88° |
| 2026-04-25 01:32 | 25.78371 | -80.37204 | 1352 ft | 169 kts | 89° |
| 2026-04-25 01:32 | 25.78415 | -80.35857 | 863 ft | 175 kts | 88° |
| 2026-04-25 01:33 | 25.78491 | -80.34551 | 658 ft | 166 kts | 85° |
| 2026-04-25 01:33 | 25.78526 | -80.33307 | 431 ft | 157 kts | 90° |
| 2026-04-25 01:33 | 25.78579 | -80.32150 | 231 ft | 144 kts | 87° |
| 2026-04-25 01:33 | 25.78628 | -80.31093 | 45 ft | 129 kts | 89° |
| 2026-04-25 01:34 | 25.78659 | -80.30290 | 26 ft | 67 kts | 87° |
| 2026-04-25 01:34 | 25.78675 | -80.29845 | 24 ft | 49 kts | 87° |
| 2026-04-25 01:34 | 25.78689 | -80.29513 | 26 ft | 41 kts | 87° |
| 2026-04-25 01:34 | 25.78703 | -80.29343 | 26 ft | 18 kts | 81° |
| 2026-04-25 01:35 | 25.78748 | -80.29218 | 28 ft | 15 kts | 53° |
| 2026-04-25 01:35 | 25.78758 | -80.29205 | 29 ft | 3 kts | 50° |
| 2026-04-25 01:35 | 25.78784 | -80.29170 | 30 ft | 9 kts | 49° |
| 2026-04-25 01:35 | 25.78815 | -80.29098 | 25 ft | 11 kts | 83° |
| 2026-04-25 01:36 | 25.78826 | -80.29012 | 28 ft | 12 kts | 78° |
| 2026-04-25 01:36 | 25.78853 | -80.28909 | 24 ft | 18 kts | 75° |
| 2026-04-25 01:36 | 25.78869 | -80.28762 | 25 ft | 20 kts | 90° |
| 2026-04-25 01:36 | 25.78873 | -80.28647 | 23 ft | 1 kts | 89° |
| 2026-04-25 01:37 | 25.78878 | -80.28543 | 25 ft | 22 kts | 86° |
| 2026-04-25 01:37 | 25.78881 | -80.28410 | 27 ft | 0 kts | 88° |
| 2026-04-25 01:37 | 25.78882 | -80.28394 | 27 ft | 4 kts | 88° |
| 2026-04-25 01:37 | 25.78884 | -80.28334 | 31 ft | 11 kts | 88° |
| 2026-04-25 01:38 | 25.78889 | -80.28238 | 27 ft | 14 kts | 85° |
| 2026-04-25 01:38 | 25.78908 | -80.28146 | 28 ft | 10 kts | 58° |
| 2026-04-25 01:38 | 25.78957 | -80.28140 | 28 ft | 7 kts | 330° |
| 2026-04-25 01:38 | 25.78998 | -80.28159 | 29 ft | 6 kts | 359° |
| 2026-04-25 01:39 | 25.79036 | -80.28151 | 29 ft | 4 kts | 27° |
| 2026-04-25 01:39 | 25.79052 | -80.28140 | 30 ft | 3 kts | 31° |
| 2026-04-25 01:39 | 25.79081 | -80.28126 | 30 ft | 6 kts | 21° |
| 2026-04-25 01:39 | 25.79115 | -80.28117 | 29 ft | 2 kts | 344° |
| 2026-04-25 01:40 | 25.79137 | -80.28126 | 29 ft | 3 kts | 342° |
| 2026-04-25 01:40 | 25.79138 | -80.28126 | 29 ft | 0 kts | 342° |